ENGMENTC

Guest
Details From ENGM - Oslo Gardermoen
To ENTC - Tromso Langnes
Flight Number -
Tags Generated
Created
Modified
Stats Distance 603 nm / 1,116 km
Max Altitude 0 ft / 0 m
Waypoints 3
Social Downloads 2
Likes 0
Share VATSIM

Download

Looking for another format? Having issues loading an existing format? Contact us
Advertisement - Login to hide

Notes

Generated

Route

ENGM TRO31 ENTC

ID Type Via Altitude Latitude Longitude Leg Dist Tot Dist Heading (true) Name
O ENGM APT - 0 ft / 0 m 60.17576˚ 11.10778˚ - 0 nm - -
TRO31 FIX - 0 ft / 0 m 69.45077˚ 18.63178˚ 588 nm 588 nm 16° / 23° -
O ENTC APT - 0 ft / 0 m 69.67250˚ 18.91291˚ 14 nm 602 nm 24° / 24° -

Altitude Profile

Advertisement - Login to hide

Weather


0- 5 10 15 20 25 30 35+ Temperature / ° C

Clouds and Precipitation
Forecast for 2017-12-16 18:00 UTC. Updated an hour ago

Ground ~20,000 ft ~40,000 ft Winds

ENGM

Details ICAO ENGM (OSL)
Name Oslo Gardermoen
Region Norway
Timezone Europe/Oslo (UTC+1.0)
Stats Elevation 681 ft / 208 m (AMSL)
Location 60.194507° 11.098998°
Runways 2
Magnetic Variation 3.386° E

METAR

ENGM 161820Z 35004KT CAVOK M07/M09 Q1007 NOSIG

Decode

TAF

TAF ENGM 161700Z 1618/1718 36005KT CAVOK

Decode

Departure Runways

ID Width Length Bearing (true) Bearing (mag) Surface Threshold Offset Overrun Length
01L 148 ft / 45 m 12,144 ft / 3,702 m 15.89° 12.50° Concrete 0 ft / 0 m 499 ft / 152 m
01R 148 ft / 45 m 10,014 ft / 3,052 m 15.89° 12.50° Concrete 0 ft / 0 m 499 ft / 152 m
19L 148 ft / 45 m 10,014 ft / 3,052 m 195.91° 192.52° Concrete 0 ft / 0 m 466 ft / 142 m
19R 148 ft / 45 m 12,144 ft / 3,702 m 195.91° 192.52° Concrete 0 ft / 0 m 482 ft / 147 m

ENTC

Details ICAO ENTC (TOS)
Name Tromso Langnes
Region Norway
Timezone Europe/Oslo (UTC+1.0)
Stats Elevation 31 ft / 9 m (AMSL)
Location 69.682866° 18.919363°
Runways 1
Magnetic Variation 8.800° E

METAR

ENTC 161820Z 23010KT 9999 BKN088 M03/M05 Q0998 NOSIG RMK WIND 2600FT 20008KT

Decode

TAF

TAF ENTC 161700Z 1618/1718 21010KT 9999 FEW015 BKN040 TEMPO 1706/1718 SCT015CB TEMPO 1706/1714 24018G28KT 0500 +SHSNGS VV005 TEMPO 1714/1718 2000 SHSN VV008

Decode

Destination Runways

ID Width Length Bearing (true) Bearing (mag) Surface Threshold Offset Overrun Length
01 141 ft / 43 m 7,740 ft / 2,359 m 12.19° 3.39° Asphalt 0 ft / 0 m 289 ft / 88 m
19 141 ft / 43 m 7,740 ft / 2,359 m 192.21° 183.41° Asphalt 1,227 ft / 374 m 482 ft / 147 m

Approach Navaids

Runway Type Ident Frequency Range Bearing (true) Bearing (mag) Slope Elevation
01 Localiser TC 110.90 MHz 18 nm / 33 km 12.08° 3.28° - 56 ft / 17 m (AMSL)
01 Glidescope TC 110.90 MHz 10 nm / 19 km 12.20° 3.40° 4.00° 31 ft / 9 m (AMSL)
01 DME TC 110.90 MHz 18 nm / 33 km - - - 56 ft / 17 m (AMSL)
19 Localiser TR 109.90 MHz 18 nm / 33 km 193.28° 184.48° - 36 ft / 11 m (AMSL)
19 Glidescope TR 109.90 MHz 10 nm / 19 km 192.20° 183.40° 4.00° 31 ft / 9 m (AMSL)
19 DME TR 109.90 MHz 18 nm / 33 km - - - 36 ft / 11 m (AMSL)

Popular Alternatives